createdAt,value
2022-09-11T00:01:18.712Z,52.97
2022-09-11T00:03:51.178Z,52.84
2022-09-11T00:06:29.254Z,53.48
2022-09-11T00:09:03.459Z,53.18
2022-09-11T00:11:42.992Z,52.44
2022-09-11T00:14:14.369Z,51.64
2022-09-11T00:16:46.677Z,51.26
2022-09-11T00:19:23.260Z,51.95
2022-09-11T00:21:52.142Z,52.35
2022-09-11T00:24:22.513Z,53.81
2022-09-11T00:26:51.776Z,54.20
2022-09-11T00:29:22.373Z,53.91
2022-09-11T00:31:51.186Z,52.75
2022-09-11T00:34:28.200Z,53.84
2022-09-11T00:36:58.570Z,54.70
2022-09-11T00:39:28.610Z,53.83
2022-09-11T00:41:57.245Z,55.01
2022-09-11T00:44:28.958Z,53.99
2022-09-11T00:47:03.914Z,53.94
2022-09-11T00:49:45.965Z,52.83
2022-09-11T00:52:26.946Z,52.14
2022-09-11T00:55:10.120Z,53.02
2022-09-11T00:58:13.882Z,54.56
2022-09-11T01:00:46.692Z,54.74
2022-09-11T01:03:20.952Z,56.05
2022-09-11T01:05:52.974Z,55.37
2022-09-11T01:08:28.401Z,55.09
2022-09-11T01:11:00.469Z,54.48
2022-09-11T01:13:41.404Z,54.70
2022-09-11T01:16:56.098Z,55.06
2022-09-11T01:20:06.144Z,54.04
2022-09-11T01:23:29.115Z,54.14
2022-09-11T01:26:19.369Z,55.32
2022-09-11T01:29:32.268Z,55.26
2022-09-11T01:32:22.663Z,54.56
2022-09-11T01:35:10.529Z,53.40
2022-09-11T01:37:51.745Z,54.24
2022-09-11T01:40:29.235Z,54.11
2022-09-11T01:43:17.076Z,55.01
2022-09-11T01:45:49.528Z,53.07
2022-09-11T01:48:23.005Z,54.14
2022-09-11T01:50:55.210Z,54.78
2022-09-11T01:53:35.337Z,55.68
2022-09-11T01:56:17.928Z,54.25
2022-09-11T01:58:59.031Z,54.95
2022-09-11T02:01:36.418Z,55.81
2022-09-11T02:04:12.268Z,55.18
2022-09-11T02:06:49.658Z,55.61
2022-09-11T02:09:29.374Z,55.64
2022-09-11T02:12:02.807Z,55.70
2022-09-11T02:14:41.004Z,55.08
2022-09-11T02:17:38.303Z,55.10
2022-09-11T02:20:14.604Z,54.84
2022-09-11T02:22:45.613Z,54.84
2022-09-11T02:25:17.610Z,55.07
2022-09-11T02:27:50.673Z,55.28
2022-09-11T02:30:22.214Z,54.90
2022-09-11T02:32:56.255Z,54.82
2022-09-11T02:35:30.660Z,54.57
2022-09-11T02:38:33.754Z,54.52
2022-09-11T02:41:14.295Z,55.56
2022-09-11T02:44:03.721Z,54.95
2022-09-11T02:46:51.003Z,55.52
2022-09-11T02:49:44.851Z,55.68
2022-09-11T02:52:58.387Z,56.14
2022-09-11T02:55:46.051Z,56.48
2022-09-11T02:58:29.545Z,56.04
2022-09-11T03:01:01.365Z,55.69
2022-09-11T03:03:45.798Z,55.51
2022-09-11T03:06:25.560Z,55.95
2022-09-11T03:08:55.814Z,55.62
2022-09-11T03:11:33.615Z,56.28
2022-09-11T03:14:06.417Z,56.93
2022-09-11T03:16:38.346Z,56.52
2022-09-11T03:19:10.914Z,57.07
2022-09-11T03:21:43.580Z,56.69
2022-09-11T03:24:14.582Z,56.73
2022-09-11T03:26:54.436Z,57.75
2022-09-11T03:29:22.395Z,57.16
2022-09-11T03:31:57.630Z,56.74
2022-09-11T03:34:29.954Z,55.84
2022-09-11T03:37:10.569Z,55.49
2022-09-11T03:39:44.460Z,55.36
2022-09-11T03:42:21.623Z,56.54
2022-09-11T03:44:54.506Z,56.02
2022-09-11T03:47:25.615Z,55.84
2022-09-11T03:50:05.342Z,55.99
2022-09-11T03:52:37.455Z,57.22
2022-09-11T03:55:08.527Z,56.37
2022-09-11T03:57:39.468Z,56.54
2022-09-11T04:00:15.085Z,57.01
2022-09-11T04:02:50.488Z,56.26
2022-09-11T04:05:26.352Z,56.18
2022-09-11T04:07:58.992Z,56.55
2022-09-11T04:10:40.092Z,56.64
2022-09-11T04:13:14.334Z,56.63
2022-09-11T04:15:43.412Z,56.14
2022-09-11T04:18:19.414Z,56.23
2022-09-11T04:20:51.735Z,56.20
2022-09-11T04:23:27.955Z,55.80
2022-09-11T04:26:19.721Z,56.17
2022-09-11T04:29:01.264Z,56.19
2022-09-11T04:31:32.137Z,55.63
2022-09-11T04:34:06.412Z,55.11
2022-09-11T04:36:39.736Z,54.71
2022-09-11T04:39:25.887Z,54.84
2022-09-11T04:42:01.551Z,56.37
2022-09-11T04:44:34.650Z,56.55
2022-09-11T04:47:11.335Z,55.48
2022-09-11T04:49:43.001Z,56.31
2022-09-11T04:52:17.059Z,56.17
2022-09-11T04:54:49.865Z,56.23
2022-09-11T04:57:29.867Z,56.54
2022-09-11T05:00:11.253Z,56.46
2022-09-11T05:02:51.041Z,56.86
2022-09-11T05:05:22.021Z,57.54
2022-09-11T05:07:57.222Z,57.26
2022-09-11T05:10:32.650Z,57.29
2022-09-11T05:13:08.746Z,57.14
2022-09-11T05:16:11.156Z,58.14
2022-09-11T05:18:44.844Z,58.42
2022-09-11T05:21:24.864Z,58.12
2022-09-11T05:24:34.397Z,58.21
2022-09-11T05:26:54.664Z,57.66
2022-09-11T05:29:33.996Z,57.07
2022-09-11T05:32:10.435Z,56.93
2022-09-11T05:34:59.554Z,57.37
2022-09-11T05:37:32.960Z,57.47
2022-09-11T05:40:12.795Z,57.96
2022-09-11T05:42:44.171Z,57.34
2022-09-11T05:45:23.331Z,57.23
2022-09-11T05:48:00.188Z,56.33
2022-09-11T05:50:38.309Z,56.78
2022-09-11T05:53:14.609Z,56.62
2022-09-11T05:55:48.046Z,56.17
2022-09-11T05:58:22.194Z,55.62
2022-09-11T06:01:04.063Z,55.72
2022-09-11T06:03:53.346Z,55.37
2022-09-11T06:06:48.363Z,55.28
2022-09-11T06:09:24.283Z,55.45
2022-09-11T06:11:59.939Z,55.85
2022-09-11T06:14:42.672Z,56.29
2022-09-11T06:17:15.259Z,55.92
2022-09-11T06:19:55.286Z,56.22
2022-09-11T06:22:31.488Z,56.40
2022-09-11T06:25:02.463Z,54.83
2022-09-11T06:27:38.207Z,54.75
2022-09-11T06:30:20.217Z,55.88
2022-09-11T06:33:05.858Z,54.71
2022-09-11T06:36:06.945Z,54.60
2022-09-11T06:38:39.403Z,53.35
2022-09-11T06:41:14.505Z,53.86
2022-09-11T06:44:00.554Z,52.85
2022-09-11T06:46:33.444Z,52.32
2022-09-11T06:49:06.609Z,51.56
2022-09-11T06:51:50.517Z,51.66
2022-09-11T06:54:27.783Z,52.10
2022-09-11T06:57:10.979Z,52.65
2022-09-11T06:59:47.976Z,51.94
2022-09-11T07:02:16.733Z,50.84
2022-09-11T07:05:11.020Z,50.15
2022-09-11T07:07:54.417Z,50.76
2022-09-11T07:10:33.964Z,50.38
2022-09-11T07:13:11.797Z,50.94
2022-09-11T07:15:42.859Z,50.17
2022-09-11T07:18:15.481Z,50.28
2022-09-11T07:20:45.152Z,50.83
2022-09-11T07:23:20.432Z,49.79
2022-09-11T07:25:50.158Z,49.49
2022-09-11T07:28:29.898Z,49.30
2022-09-11T07:31:18.708Z,49.01
2022-09-11T07:33:57.209Z,48.75
2022-09-11T07:36:32.453Z,47.60
2022-09-11T07:39:09.994Z,47.63
2022-09-11T07:41:55.843Z,47.28
2022-09-11T07:44:29.025Z,47.81
2022-09-11T07:47:07.727Z,47.77
2022-09-11T07:49:47.783Z,46.98
2022-09-11T07:52:26.522Z,46.48
2022-09-11T07:54:58.061Z,45.88
2022-09-11T07:57:32.774Z,46.26
2022-09-11T08:00:13.441Z,47.02
2022-09-11T08:02:52.081Z,46.85
2022-09-11T08:05:21.522Z,46.10
2022-09-11T08:07:55.366Z,45.30
2022-09-11T08:10:44.731Z,44.81
2022-09-11T08:13:35.665Z,45.15
2022-09-11T08:16:20.864Z,45.19
2022-09-11T08:18:57.939Z,45.34
2022-09-11T08:22:04.265Z,45.29
2022-09-11T08:24:45.443Z,45.31
2022-09-11T08:27:19.159Z,45.08
2022-09-11T08:30:05.348Z,44.82
2022-09-11T08:32:48.897Z,44.47
2022-09-11T08:38:38.305Z,44.94
2022-09-11T08:41:36.163Z,44.49
2022-09-11T08:44:22.679Z,44.68
2022-09-11T08:47:11.221Z,43.76
2022-09-11T08:49:49.690Z,43.14
2022-09-11T08:52:36.919Z,43.14
2022-09-11T08:55:19.520Z,43.09
2022-09-11T08:58:12.095Z,43.05
2022-09-11T09:01:11.407Z,42.43
2022-09-11T09:04:13.196Z,42.62
2022-09-11T09:07:06.581Z,43.23
2022-09-11T09:10:24.928Z,42.42
2022-09-11T09:13:41.618Z,42.16
2022-09-11T09:16:30.094Z,42.21
2022-09-11T09:19:19.814Z,41.85
2022-09-11T09:21:58.473Z,41.84
2022-09-11T09:24:40.757Z,41.69
2022-09-11T09:27:57.428Z,40.41
2022-09-11T09:30:36.674Z,40.06
2022-09-11T09:33:17.167Z,40.69
2022-09-11T09:35:53.161Z,40.49
2022-09-11T09:38:38.929Z,39.90
2022-09-11T09:42:01.638Z,39.79
2022-09-11T09:44:48.974Z,39.70
2022-09-11T09:47:34.095Z,39.64
2022-09-11T09:50:30.771Z,39.68
2022-09-11T09:53:14.866Z,39.74
2022-09-11T09:56:45.384Z,39.38
2022-09-11T09:59:06.119Z,39.92
2022-09-11T10:01:46.235Z,39.45
2022-09-11T10:04:28.108Z,38.84
2022-09-11T10:07:15.887Z,38.85
2022-09-11T10:09:56.010Z,39.10
2022-09-11T10:12:35.515Z,39.37
2022-09-11T10:15:21.388Z,39.22
2022-09-11T10:18:40.492Z,39.19
2022-09-11T10:21:33.916Z,39.32
2022-09-11T10:24:26.683Z,39.89
2022-09-11T10:27:08.168Z,40.48
2022-09-11T10:29:57.677Z,40.63
2022-09-11T10:32:39.544Z,41.88
2022-09-11T10:35:24.717Z,42.45
2022-09-11T10:38:18.678Z,42.24
2022-09-11T10:41:14.700Z,42.73
2022-09-11T10:44:04.034Z,42.89
2022-09-11T10:46:44.454Z,42.86
2022-09-11T10:49:25.806Z,42.78
2022-09-11T10:52:15.254Z,42.47
2022-09-11T10:55:00.078Z,41.63
2022-09-11T10:57:56.384Z,40.54
2022-09-11T11:00:45.243Z,40.42
2022-09-11T11:03:24.524Z,39.89
2022-09-11T11:07:01.975Z,39.21
2022-09-11T11:10:00.453Z,38.77
2022-09-11T11:12:40.675Z,40.41
2022-09-11T11:15:31.277Z,40.33
2022-09-11T11:18:23.277Z,39.16
2022-09-11T11:21:15.639Z,38.91
2022-09-11T11:23:56.514Z,38.39
2022-09-11T11:26:37.105Z,37.30
2022-09-11T11:29:23.065Z,37.28
2022-09-11T11:32:32.259Z,36.74
2022-09-11T11:35:26.806Z,36.60
2022-09-11T11:38:27.312Z,36.53
2022-09-11T11:41:03.396Z,35.85
2022-09-11T11:43:39.251Z,34.78
2022-09-11T11:46:28.945Z,36.33
2022-09-11T11:49:09.221Z,36.60
2022-09-11T11:52:05.955Z,37.65
2022-09-11T11:55:04.400Z,37.46
2022-09-11T11:57:40.111Z,37.35
2022-09-11T12:00:29.332Z,38.45
2022-09-11T12:03:09.031Z,38.32
2022-09-11T12:06:02.248Z,37.75
2022-09-11T12:08:44.189Z,36.44
2022-09-11T12:11:17.814Z,35.94
2022-09-11T12:13:50.801Z,35.62
2022-09-11T12:16:30.630Z,36.33
2022-09-11T12:19:22.629Z,38.14
2022-09-11T12:21:53.770Z,41.58
2022-09-11T12:24:52.729Z,46.80
2022-09-11T12:27:38.265Z,49.41
2022-09-11T12:30:27.216Z,51.15
2022-09-11T12:33:03.313Z,50.42
2022-09-11T12:35:54.460Z,51.07
2022-09-11T12:38:42.343Z,53.03
2022-09-11T12:41:35.116Z,52.07
2022-09-11T12:44:06.867Z,51.51
2022-09-11T12:46:58.522Z,52.51
2022-09-11T12:49:31.800Z,51.98
2022-09-11T12:52:20.208Z,52.58
2022-09-11T12:54:55.569Z,54.05
2022-09-11T12:57:35.401Z,52.29
2022-09-11T13:00:13.795Z,50.13
2022-09-11T13:02:44.690Z,51.63
2022-09-11T13:05:28.600Z,50.07
2022-09-11T13:08:05.570Z,51.33
2022-09-11T13:10:39.596Z,52.59
2022-09-11T13:13:36.285Z,51.53
2022-09-11T13:16:19.768Z,52.01
2022-09-11T13:18:50.880Z,52.74
2022-09-11T13:21:24.427Z,53.04
2022-09-11T13:23:54.740Z,52.21
2022-09-11T13:26:32.222Z,53.39
2022-09-11T13:29:03.769Z,52.37
2022-09-11T13:31:42.491Z,50.55
2022-09-11T13:34:26.354Z,49.44
2022-09-11T13:36:58.552Z,48.95
2022-09-11T13:39:32.173Z,49.31
2022-09-11T13:42:05.653Z,48.45
2022-09-11T13:44:47.341Z,48.01
2022-09-11T13:47:30.633Z,48.05
2022-09-11T13:50:06.146Z,49.94
2022-09-11T13:52:40.281Z,48.23
2022-09-11T13:55:15.244Z,48.23
2022-09-11T13:58:27.715Z,46.74
2022-09-11T14:00:59.613Z,46.30
2022-09-11T14:03:30.723Z,45.30
2022-09-11T14:06:08.948Z,45.34
2022-09-11T14:08:47.424Z,44.38
2022-09-11T14:11:29.387Z,43.68
2022-09-11T14:14:29.380Z,44.47
2022-09-11T14:17:01.566Z,43.67
2022-09-11T14:19:38.587Z,42.58
2022-09-11T14:22:36.224Z,41.82
2022-09-11T14:25:10.029Z,41.44
2022-09-11T14:27:45.148Z,41.99
2022-09-11T14:30:34.804Z,41.99
2022-09-11T14:33:23.833Z,42.41
2022-09-11T14:36:10.958Z,40.58
2022-09-11T14:38:43.932Z,41.44
2022-09-11T14:41:17.073Z,40.19
2022-09-11T14:43:53.601Z,40.50
2022-09-11T14:46:24.374Z,39.61
2022-09-11T14:48:52.564Z,40.14
2022-09-11T14:51:31.269Z,39.41
2022-09-11T14:54:04.316Z,39.58
2022-09-11T14:56:34.496Z,38.58
2022-09-11T14:59:17.225Z,37.96
2022-09-11T15:01:57.620Z,38.21
2022-09-11T15:04:29.857Z,38.09
2022-09-11T15:07:03.328Z,37.59
2022-09-11T15:09:37.185Z,38.01
2022-09-11T15:12:22.665Z,36.55
2022-09-11T15:15:05.324Z,36.39
2022-09-11T15:17:37.405Z,36.16
2022-09-11T15:20:19.206Z,36.14
2022-09-11T15:22:53.305Z,36.51
2022-09-11T15:25:29.114Z,36.53
2022-09-11T15:28:03.308Z,36.92
2022-09-11T15:30:39.080Z,37.44
2022-09-11T15:33:15.791Z,37.96
2022-09-11T15:35:53.561Z,37.86
2022-09-11T15:38:24.322Z,38.31
2022-09-11T15:40:58.228Z,38.62
2022-09-11T15:43:40.294Z,39.16
2022-09-11T15:46:15.596Z,38.47
2022-09-11T15:48:50.152Z,38.58
2022-09-11T15:51:26.917Z,38.29
2022-09-11T15:54:01.295Z,38.48
2022-09-11T15:56:30.085Z,37.60
2022-09-11T15:59:04.855Z,38.19
2022-09-11T16:01:37.597Z,38.92
2022-09-11T16:04:09.538Z,39.52
2022-09-11T16:06:42.284Z,40.56
2022-09-11T16:09:23.013Z,41.31
2022-09-11T16:11:57.127Z,41.19
2022-09-11T16:14:32.934Z,41.49
2022-09-11T16:17:07.821Z,41.54
2022-09-11T16:19:42.977Z,41.27
2022-09-11T16:22:11.672Z,41.20
2022-09-11T16:24:44.279Z,41.01
2022-09-11T16:27:14.216Z,42.35
2022-09-11T16:32:38.466Z,41.90
2022-09-11T16:35:13.471Z,42.24
2022-09-11T16:37:42.082Z,42.16
2022-09-11T16:40:12.744Z,42.38
2022-09-11T16:42:45.921Z,42.90
2022-09-11T16:45:16.180Z,43.03
2022-09-11T16:47:48.124Z,44.33
2022-09-11T16:50:17.580Z,43.79
2022-09-11T16:52:51.217Z,44.55
2022-09-11T16:55:23.191Z,44.66
2022-09-11T16:57:55.322Z,44.56
2022-09-11T17:00:26.085Z,44.92
2022-09-11T17:02:53.799Z,45.09
2022-09-11T17:05:21.524Z,45.16
2022-09-11T17:07:52.771Z,45.90
2022-09-11T17:10:20.871Z,45.84
2022-09-11T17:12:52.238Z,46.73
2022-09-11T17:15:20.529Z,46.83
2022-09-11T17:17:50.529Z,45.94
2022-09-11T17:20:21.737Z,47.24
2022-09-11T17:22:53.749Z,47.98
2022-09-11T17:25:26.051Z,47.07
2022-09-11T17:27:56.619Z,47.82
2022-09-11T17:30:27.967Z,48.84
2022-09-11T17:32:57.416Z,47.82
2022-09-11T17:35:27.097Z,48.22
2022-09-11T17:37:55.735Z,48.23
2022-09-11T17:40:23.919Z,48.43
2022-09-11T17:42:55.902Z,48.08
2022-09-11T17:45:25.393Z,48.45
2022-09-11T17:47:53.895Z,49.74
2022-09-11T17:50:21.827Z,49.51
2022-09-11T17:52:52.678Z,49.32
2022-09-11T17:55:23.013Z,49.93
2022-09-11T17:57:54.826Z,50.33
2022-09-11T18:00:23.752Z,49.86
2022-09-11T18:02:54.392Z,51.19
2022-09-11T18:05:23.146Z,51.00
2022-09-11T18:07:53.852Z,51.04
2022-09-11T18:10:24.479Z,51.35
2022-09-11T18:12:58.617Z,51.30
2022-09-11T18:15:29.724Z,51.30
2022-09-11T18:17:57.960Z,51.25
2022-09-11T18:20:28.102Z,51.44
2022-09-11T18:22:56.639Z,51.73
2022-09-11T18:25:26.508Z,51.46
2022-09-11T18:27:56.188Z,51.26
2022-09-11T18:30:24.397Z,51.33
2022-09-11T18:32:54.365Z,51.36
2022-09-11T18:35:23.114Z,51.37
2022-09-11T18:37:54.572Z,51.39
2022-09-11T18:40:23.584Z,50.83
2022-09-11T18:42:53.046Z,50.63
2022-09-11T18:45:22.055Z,51.05
2022-09-11T18:47:54.913Z,51.61
2022-09-11T18:50:25.857Z,50.99
2022-09-11T18:52:57.091Z,51.32
2022-09-11T18:55:29.936Z,50.84
2022-09-11T18:58:04.477Z,50.55
2022-09-11T19:00:33.083Z,49.83
2022-09-11T19:03:02.881Z,48.92
2022-09-11T19:05:31.463Z,49.88
2022-09-11T19:08:01.610Z,49.06
2022-09-11T19:10:30.223Z,49.17
2022-09-11T19:13:01.334Z,49.77
2022-09-11T19:15:34.144Z,49.49
2022-09-11T19:18:03.145Z,49.22
2022-09-11T19:20:32.171Z,49.08
2022-09-11T19:23:02.760Z,49.27
2022-09-11T19:25:33.649Z,49.42
2022-09-11T19:28:02.664Z,49.30
2022-09-11T19:30:40.082Z,49.46
2022-09-11T19:33:13.414Z,49.69
2022-09-11T19:35:42.194Z,50.55
2022-09-11T19:38:10.169Z,50.79
2022-09-11T19:40:38.554Z,50.99
2022-09-11T19:43:07.448Z,51.06
2022-09-11T19:45:35.561Z,51.45
2022-09-11T19:48:04.540Z,51.67
2022-09-11T19:50:37.371Z,52.16
2022-09-11T19:53:06.276Z,52.68
2022-09-11T19:55:35.608Z,52.49
2022-09-11T19:58:04.510Z,53.22
2022-09-11T20:00:36.107Z,53.53
2022-09-11T20:03:06.413Z,53.67
2022-09-11T20:05:40.797Z,53.55
2022-09-11T20:08:14.022Z,53.71
2022-09-11T20:10:46.970Z,54.51
2022-09-11T20:13:18.992Z,54.62
2022-09-11T20:15:47.690Z,53.65
2022-09-11T20:18:20.602Z,53.78
2022-09-11T20:20:55.351Z,54.39
2022-09-11T20:23:27.469Z,54.31
2022-09-11T20:26:21.555Z,53.67
2022-09-11T20:29:03.274Z,53.20
2022-09-11T20:31:42.538Z,54.19
2022-09-11T20:34:23.327Z,53.95
2022-09-11T20:36:54.937Z,54.41
2022-09-11T20:39:28.520Z,54.18
2022-09-11T20:42:02.430Z,54.29
2022-09-11T20:44:37.001Z,54.75
2022-09-11T20:47:13.959Z,54.71
2022-09-11T20:49:48.288Z,55.19
2022-09-11T20:52:20.230Z,55.47
2022-09-11T20:54:51.737Z,54.64
2022-09-11T20:57:22.678Z,55.20
2022-09-11T20:59:51.788Z,54.74
2022-09-11T21:02:20.818Z,55.09
2022-09-11T21:04:49.233Z,54.83
2022-09-11T21:07:17.608Z,55.41
2022-09-11T21:09:46.408Z,54.85
2022-09-11T21:12:14.472Z,54.84
2022-09-11T21:14:45.958Z,55.59
2022-09-11T21:17:13.585Z,55.24
2022-09-11T21:19:43.078Z,55.73
2022-09-11T21:22:16.094Z,55.66
2022-09-11T21:24:45.884Z,56.96
2022-09-11T21:27:15.429Z,56.02
2022-09-11T21:29:43.185Z,55.83
2022-09-11T21:32:13.387Z,55.34
2022-09-11T21:34:43.257Z,56.33
2022-09-11T21:37:13.990Z,56.17
2022-09-11T21:39:44.601Z,55.83
2022-09-11T21:42:15.149Z,56.12
2022-09-11T21:44:45.284Z,56.36
2022-09-11T21:47:14.093Z,56.60
2022-09-11T21:49:45.950Z,56.76
2022-09-11T21:52:16.548Z,58.02
2022-09-11T21:54:46.859Z,57.27
2022-09-11T21:57:18.092Z,58.52
2022-09-11T21:59:49.089Z,57.85
2022-09-11T22:02:24.372Z,58.85
2022-09-11T22:04:56.630Z,58.76
2022-09-11T22:07:32.453Z,59.08
2022-09-11T22:10:07.421Z,59.54
2022-09-11T22:12:48.627Z,61.43
2022-09-11T22:15:28.135Z,60.52
2022-09-11T22:18:11.852Z,59.71
2022-09-11T22:20:44.763Z,59.42
2022-09-11T22:23:23.264Z,58.89
2022-09-11T22:26:24.694Z,59.68
2022-09-11T22:28:59.729Z,59.75
2022-09-11T22:31:33.509Z,60.21
2022-09-11T22:34:16.595Z,62.42
2022-09-11T22:36:54.245Z,60.07
2022-09-11T22:39:27.420Z,59.05
2022-09-11T22:42:08.504Z,59.02
2022-09-11T22:44:45.175Z,59.69
2022-09-11T22:47:23.504Z,59.37
2022-09-11T22:50:00.777Z,60.17
2022-09-11T22:52:40.258Z,59.96
2022-09-11T22:55:15.557Z,60.02
2022-09-11T22:57:57.675Z,59.66
2022-09-11T23:00:42.525Z,59.99
2022-09-11T23:03:20.676Z,59.76
2022-09-11T23:06:23.620Z,59.32
2022-09-11T23:09:01.172Z,59.41
2022-09-11T23:11:40.176Z,59.56
2022-09-11T23:14:29.343Z,59.79
2022-09-11T23:17:10.846Z,60.24
2022-09-11T23:19:49.671Z,59.45
2022-09-11T23:22:28.047Z,61.12
2022-09-11T23:25:14.313Z,60.55
2022-09-11T23:28:09.311Z,60.06
2022-09-11T23:30:42.550Z,59.34
2022-09-11T23:33:17.701Z,59.42
2022-09-11T23:35:56.704Z,58.97
2022-09-11T23:38:30.065Z,59.38
2022-09-11T23:41:05.455Z,60.14
2022-09-11T23:43:42.770Z,60.16
2022-09-11T23:46:24.224Z,59.43
2022-09-11T23:49:08.761Z,59.39
2022-09-11T23:51:42.444Z,58.87
2022-09-11T23:54:19.150Z,60.14
2022-09-11T23:56:54.715Z,60.37
2022-09-11T23:59:27.941Z,60.12
